Terminal Aerodrome Forecast
Issued by NWS

Home | Current Version | Previous Version | Graphics & Text | Print | Product List | Glossary On
Versions: 1 2 3 4 5 6 7 8 9 10 11 12 13 14 15 16 17 18 19 20
000
FTUS43 KMPX 281501 AAA
TAFAXN
TAF AMD
KAXN 281501Z 2815/2912 15015KT 4SM BR OVC004
     FM281800 15012KT 6SM BR OVC006
     FM282100 16005KT 4SM BR OVC007
     FM290100 32008KT P6SM OVC008
     FM290400 32017G27KT P6SM OVC012=

USA.gov is the U.S. government's official web portal to all federal, state and local government web resources and services.